Time;durP1;ratioP1;P1;durP2;ratioP2;P2;SDS_P1;SDS_P2;PMS_P1;PMS_P2;Temp;Humidity;BMP_temperature;BMP_pressure;BME280_temperature;BME280_humidity;BME280_pressure;Samples;Min_cycle;Max_cycle;Signal;HPM_P1;HPM_P2
2022/10/21 00:01:15;;;;;;;;;;;12.30;99.90;;;;;;5096380;28;19915;-80
2022/10/21 00:03:44;;;;;;;;;;;12.30;99.90;;;;;;5096290;28;19919;-81
2022/10/21 00:06:10;;;;;;;;;;;12.30;99.90;;;;;;5114262;28;19923;-82
2022/10/21 00:08:39;;;;;;;;;;;12.20;99.90;;;;;;5114294;28;19922;-81
2022/10/21 00:11:05;;;;;;;;;;;12.20;99.90;;;;;;5114423;28;20340;-80
2022/10/21 00:13:31;;;;;;;;;;;12.20;99.90;;;;;;5095644;28;20295;-81
2022/10/21 00:15:58;;;;;;;;;;;12.10;99.90;;;;;;5114060;28;19923;-80
2022/10/21 00:18:24;;;;;;;;;;;12.10;99.90;;;;;;5095891;28;20337;-80
2022/10/21 00:20:49;;;;;;;;;;;12.10;99.90;;;;;;5113599;28;19915;-80
2022/10/21 00:23:15;;;;;;;;;;;12.10;99.90;;;;;;5114310;28;19926;-80
2022/10/21 00:25:40;;;;;;;;;;;12.20;99.90;;;;;;5114087;28;19984;-79
2022/10/21 00:28:06;;;;;;;;;;;12.00;99.90;;;;;;5113235;28;19924;-78
2022/10/21 00:30:32;;;;;;;;;;;12.00;99.90;;;;;;5113742;28;19926;-78
2022/10/21 00:32:57;;;;;;;;;;;12.00;99.90;;;;;;5096091;28;19920;-80
2022/10/21 00:35:23;;;;;;;;;;;12.00;99.90;;;;;;5094761;28;19920;-79
2022/10/21 00:37:48;;;;;;;;;;;11.90;99.90;;;;;;5095587;28;19935;-79
2022/10/21 00:40:14;;;;;;;;;;;11.90;99.90;;;;;;5095780;28;20424;-79
2022/10/21 00:42:39;;;;;;;;;;;11.90;99.90;;;;;;5112761;28;19915;-79
2022/10/21 00:45:08;;;;;;;;;;;11.90;99.90;;;;;;5095870;28;19926;-79
2022/10/21 00:47:45;;;;;;;;;;;11.90;99.90;;;;;;5112686;28;19972;-79
2022/10/21 00:50:36;;;;;;;;;;;11.80;99.90;;;;;;5095800;28;19920;-79
2022/10/21 00:53:03;;;;;;;;;;;11.90;99.90;;;;;;5060787;28;20035;-80
2022/10/21 00:55:31;;;;;;;;;;;11.90;99.90;;;;;;5094700;28;20367;-80
2022/10/21 00:57:58;;;;;;;;;;;11.90;99.90;;;;;;5113311;28;20349;-80
2022/10/21 01:00:24;;;;;;;;;;;11.80;99.90;;;;;;5095370;28;19920;-80
2022/10/21 01:02:49;;;;;;;;;;;11.80;99.90;;;;;;5094219;28;20385;-79
2022/10/21 01:05:16;;;;;;;;;;;11.90;99.90;;;;;;5113563;28;19924;-79
2022/10/21 01:07:41;;;;;;;;;;;11.80;99.90;;;;;;5094757;28;20002;-80
2022/10/21 01:10:07;;;;;;;;;;;11.80;99.90;;;;;;5094575;28;20026;-80
2022/10/21 01:12:51;;;;;;;;;;;11.80;99.90;;;;;;5113114;28;19920;-79
2022/10/21 01:15:23;;;;;;;;;;;11.70;99.90;;;;;;5112990;28;19923;-79
2022/10/21 01:17:54;;;;;;;;;;;11.80;99.90;;;;;;5090259;28;19966;-79
2022/10/21 01:20:39;;;;;;;;;;;11.80;99.90;;;;;;5091380;28;19972;-79
2022/10/21 01:23:10;;;;;;;;;;;11.80;99.90;;;;;;5092719;28;20417;-78
2022/10/21 01:25:45;;;;;;;;;;;11.80;99.90;;;;;;5113136;28;20360;-79
2022/10/21 01:28:25;;;;;;;;;;;11.80;99.90;;;;;;5113330;28;19928;-77
2022/10/21 01:30:54;;;;;;;;;;;11.80;99.90;;;;;;5116430;27;19925;-78
2022/10/21 01:33:35;;;;;;;;;;;11.80;99.90;;;;;;5094970;28;19920;-79
2022/10/21 01:36:10;;;;;;;;;;;11.80;99.90;;;;;;5113040;28;19926;-78
2022/10/21 01:38:42;;;;;;;;;;;11.90;99.90;;;;;;5092911;28;19924;-78
2022/10/21 01:41:08;;;;;;;;;;;12.00;99.90;;;;;;5094856;28;19927;-78
2022/10/21 01:43:43;;;;;;;;;;;12.00;99.90;;;;;;5094278;28;19919;-78
2022/10/21 01:46:14;;;;;;;;;;;12.00;99.90;;;;;;5094791;28;19934;-78
2022/10/21 01:48:42;;;;;;;;;;;12.10;99.90;;;;;;5093830;28;19919;-78
2022/10/21 01:51:08;;;;;;;;;;;12.10;99.90;;;;;;5094096;28;19923;-79
2022/10/21 01:53:39;;;;;;;;;;;12.10;99.90;;;;;;5112848;28;19920;-79
2022/10/21 01:56:06;;;;;;;;;;;12.20;99.90;;;;;;5094621;28;19919;-78
2022/10/21 01:58:33;;;;;;;;;;;12.00;99.90;;;;;;5093260;28;19924;-78
2022/10/21 02:00:59;;;;;;;;;;;12.00;99.90;;;;;;5094706;28;19955;-78
2022/10/21 02:03:31;;;;;;;;;;;12.00;99.90;;;;;;5112090;28;19964;-78
2022/10/21 02:05:57;;;;;;;;;;;12.20;99.90;;;;;;5093787;28;20383;-78
2022/10/21 02:08:23;;;;;;;;;;;12.20;99.90;;;;;;5112380;28;19922;-79
2022/10/21 02:10:50;;;;;;;;;;;12.10;99.90;;;;;;5112453;28;20965;-78
2022/10/21 02:13:26;;;;;;;;;;;12.10;99.90;;;;;;5093518;28;20314;-78
2022/10/21 02:15:53;;;;;;;;;;;12.00;99.90;;;;;;5094120;28;19927;-78
2022/10/21 02:18:23;;;;;;;;;;;12.00;99.90;;;;;;5093735;28;20421;-78
2022/10/21 02:20:51;;;;;;;;;;;12.10;99.90;;;;;;5093361;28;19919;-78
2022/10/21 02:23:18;;;;;;;;;;;12.10;99.90;;;;;;5094199;28;19980;-78
2022/10/21 02:25:49;;;;;;;;;;;12.20;99.90;;;;;;5094614;28;19926;-78
2022/10/21 02:28:15;;;;;;;;;;;12.30;99.90;;;;;;5112078;28;20406;-78
2022/10/21 02:30:55;;;;;;;;;;;12.30;99.90;;;;;;5093895;28;19923;-78
2022/10/21 02:33:28;;;;;;;;;;;12.40;99.90;;;;;;5092986;28;19927;-79
2022/10/21 02:36:14;;;;;;;;;;;12.40;99.90;;;;;;5112681;28;19926;-78
2022/10/21 02:38:42;;;;;;;;;;;12.50;99.90;;;;;;5090048;28;20353;-78
2022/10/21 02:41:09;;;;;;;;;;;12.50;99.90;;;;;;5111758;28;19923;-78
2022/10/21 02:43:37;;;;;;;;;;;12.60;99.90;;;;;;5089574;28;19919;-77
2022/10/21 02:46:09;;;;;;;;;;;12.50;99.90;;;;;;5112816;28;19920;-77
2022/10/21 02:48:35;;;;;;;;;;;12.60;99.90;;;;;;5089170;28;19945;-78
2022/10/21 02:51:02;;;;;;;;;;;12.60;99.90;;;;;;5097801;28;19919;-77
2022/10/21 02:53:28;;;;;;;;;;;12.60;99.90;;;;;;5115841;28;19919;-77
2022/10/21 02:55:53;;;;;;;;;;;12.50;99.90;;;;;;5115507;28;20251;-77
2022/10/21 02:58:19;;;;;;;;;;;12.60;99.90;;;;;;5099599;28;20280;-78
2022/10/21 03:00:44;;;;;;;;;;;12.60;99.90;;;;;;5118852;28;20345;-77
2022/10/21 03:03:10;;;;;;;;;;;12.60;99.90;;;;;;5118128;28;19979;-78
2022/10/21 03:05:38;;;;;;;;;;;12.60;99.90;;;;;;5101325;28;20002;-79
2022/10/21 03:08:12;;;;;;;;;;;12.50;99.90;;;;;;5099799;28;20267;-78
2022/10/21 03:10:40;;;;;;;;;;;12.60;99.90;;;;;;5096842;28;19920;-78
2022/10/21 03:13:06;;;;;;;;;;;12.60;99.90;;;;;;5115987;28;19927;-78
2022/10/21 03:15:31;;;;;;;;;;;12.60;99.90;;;;;;5114189;28;20397;-78
2022/10/21 03:17:57;;;;;;;;;;;12.60;99.90;;;;;;5115444;28;19976;-78
2022/10/21 03:20:23;;;;;;;;;;;12.60;99.90;;;;;;5115144;28;19942;-78
2022/10/21 03:22:48;;;;;;;;;;;12.70;99.90;;;;;;5096614;28;20068;-78
2022/10/21 03:25:14;;;;;;;;;;;12.70;99.90;;;;;;5096967;28;19920;-78
2022/10/21 03:27:42;;;;;;;;;;;12.60;99.90;;;;;;5115041;28;19920;-78
2022/10/21 03:30:08;;;;;;;;;;;12.70;99.90;;;;;;5096409;28;19924;-78
2022/10/21 03:32:33;;;;;;;;;;;12.60;99.90;;;;;;5096558;28;19945;-78
2022/10/21 03:34:59;;;;;;;;;;;12.60;99.90;;;;;;5096761;28;19915;-78
2022/10/21 03:37:25;;;;;;;;;;;12.70;99.90;;;;;;5109858;28;19923;-77
2022/10/21 03:39:50;;;;;;;;;;;12.80;99.90;;;;;;5096832;28;19926;-77
2022/10/21 03:42:16;;;;;;;;;;;12.90;99.90;;;;;;5097011;28;19923;-77
2022/10/21 03:44:41;;;;;;;;;;;12.90;99.90;;;;;;5114532;28;19920;-77
2022/10/21 03:47:07;;;;;;;;;;;13.00;99.90;;;;;;5096778;28;19924;-78
2022/10/21 03:49:33;;;;;;;;;;;13.10;99.90;;;;;;5096428;28;19968;-78
2022/10/21 03:51:58;;;;;;;;;;;13.10;99.90;;;;;;5096275;28;19920;-78
2022/10/21 03:54:24;;;;;;;;;;;13.10;99.90;;;;;;5096477;28;20372;-78
2022/10/21 03:56:52;;;;;;;;;;;13.10;99.90;;;;;;5114656;28;19919;-78
2022/10/21 03:59:17;;;;;;;;;;;13.10;99.90;;;;;;5113712;28;19923;-77
2022/10/21 04:01:43;;;;;;;;;;;13.30;99.90;;;;;;5096435;28;20010;-78
2022/10/21 04:04:09;;;;;;;;;;;13.20;99.90;;;;;;5096294;28;20049;-79
2022/10/21 04:06:34;;;;;;;;;;;13.20;99.90;;;;;;5113552;28;19924;-79
2022/10/21 04:09:00;;;;;;;;;;;13.20;99.90;;;;;;5096480;28;19916;-78
2022/10/21 04:11:25;;;;;;;;;;;13.20;99.90;;;;;;5095010;28;19919;-78
2022/10/21 04:13:51;;;;;;;;;;;13.20;99.90;;;;;;5097014;28;19920;-78
2022/10/21 04:16:18;;;;;;;;;;;13.20;99.90;;;;;;5095870;28;20443;-79
2022/10/21 04:18:43;;;;;;;;;;;13.20;99.90;;;;;;5113733;28;20283;-76
2022/10/21 04:23:55;;;;;;;;;;;13.30;99.90;;;;;;5079531;28;19970;-78
2022/10/21 04:26:23;;;;;;;;;;;13.20;99.90;;;;;;5095162;28;20406;-77
2022/10/21 04:28:49;;;;;;;;;;;13.20;99.90;;;;;;5110531;28;19915;-73
2022/10/21 04:31:17;;;;;;;;;;;13.20;99.90;;;;;;5114062;28;19934;-75
2022/10/21 04:33:43;;;;;;;;;;;13.20;99.90;;;;;;5113447;28;19923;-74
2022/10/21 04:36:08;;;;;;;;;;;13.20;99.90;;;;;;5113485;28;19920;-73
2022/10/21 04:38:34;;;;;;;;;;;13.20;99.90;;;;;;5113755;28;20295;-74
2022/10/21 04:41:01;;;;;;;;;;;13.20;99.90;;;;;;5113352;28;20398;-74
2022/10/21 04:43:27;;;;;;;;;;;13.30;99.90;;;;;;5113333;28;19920;-74
2022/10/21 04:45:53;;;;;;;;;;;13.30;99.90;;;;;;5095930;28;19926;-73
2022/10/21 04:48:19;;;;;;;;;;;13.30;99.90;;;;;;5113453;28;20052;-74
2022/10/21 04:50:46;;;;;;;;;;;13.40;99.90;;;;;;5117311;28;19927;-74
2022/10/21 04:53:12;;;;;;;;;;;13.40;99.90;;;;;;5112439;28;19916;-75
2022/10/21 04:55:38;;;;;;;;;;;13.40;99.90;;;;;;5115023;28;19926;-75
2022/10/21 04:58:04;;;;;;;;;;;13.40;99.90;;;;;;5098251;28;20283;-73
2022/10/21 05:00:33;;;;;;;;;;;13.50;99.90;;;;;;5115908;28;20414;-74
2022/10/21 05:02:58;;;;;;;;;;;13.40;99.90;;;;;;5098457;28;19919;-74
2022/10/21 05:05:26;;;;;;;;;;;13.40;99.90;;;;;;5116340;28;19966;-74
2022/10/21 05:07:52;;;;;;;;;;;13.40;99.90;;;;;;5115035;28;19995;-73
2022/10/21 05:10:17;;;;;;;;;;;13.40;99.90;;;;;;5096353;28;20010;-74
2022/10/21 05:12:43;;;;;;;;;;;13.20;99.90;;;;;;5096494;28;19920;-74
2022/10/21 05:15:09;;;;;;;;;;;13.20;99.90;;;;;;5091355;28;19963;-74
2022/10/21 05:17:35;;;;;;;;;;;13.30;99.90;;;;;;5095459;28;19970;-74
2022/10/21 05:20:04;;;;;;;;;;;13.30;99.90;;;;;;5097106;28;19919;-73
2022/10/21 05:22:29;;;;;;;;;;;13.30;99.90;;;;;;5112696;28;20011;-74
2022/10/21 05:24:55;;;;;;;;;;;13.20;99.90;;;;;;5113467;28;20017;-74
2022/10/21 05:27:23;;;;;;;;;;;13.20;99.90;;;;;;5094271;28;19972;-74
2022/10/21 05:29:52;;;;;;;;;;;13.20;99.90;;;;;;5094237;28;19919;-74
2022/10/21 05:32:17;;;;;;;;;;;13.20;99.90;;;;;;5094513;28;20341;-74
2022/10/21 05:34:43;;;;;;;;;;;13.20;99.90;;;;;;5094816;28;20355;-74
2022/10/21 05:37:08;;;;;;;;;;;13.20;99.90;;;;;;5093422;28;20416;-74
2022/10/21 05:39:37;;;;;;;;;;;13.10;99.90;;;;;;5090475;28;19924;-74
2022/10/21 05:42:02;;;;;;;;;;;13.10;99.90;;;;;;5112661;28;20076;-74
2022/10/21 05:44:28;;;;;;;;;;;13.00;99.90;;;;;;5093720;28;20352;-74
2022/10/21 05:46:53;;;;;;;;;;;12.90;99.90;;;;;;5094538;28;19926;-75
2022/10/21 05:49:19;;;;;;;;;;;12.80;99.90;;;;;;5094336;28;19996;-74
2022/10/21 05:51:44;;;;;;;;;;;12.90;99.90;;;;;;5112144;28;20012;-74
2022/10/21 05:54:10;;;;;;;;;;;12.90;99.90;;;;;;5094846;28;20007;-74
2022/10/21 05:56:36;;;;;;;;;;;12.70;99.90;;;;;;5112375;28;19927;-74
2022/10/21 05:59:01;;;;;;;;;;;12.70;99.90;;;;;;5107508;28;20286;-74
2022/10/21 06:01:27;;;;;;;;;;;12.60;99.90;;;;;;5112387;28;19930;-75
2022/10/21 06:03:52;;;;;;;;;;;12.60;99.90;;;;;;5111799;28;19925;-74
2022/10/21 06:06:18;;;;;;;;;;;12.50;99.90;;;;;;5111854;28;19920;-73
2022/10/21 06:08:43;;;;;;;;;;;12.50;99.90;;;;;;5094135;28;19970;-74
2022/10/21 06:11:11;;;;;;;;;;;12.40;99.90;;;;;;5093150;28;19930;-74
2022/10/21 06:13:37;;;;;;;;;;;12.40;99.90;;;;;;5093966;28;19930;-74
2022/10/21 06:16:03;;;;;;;;;;;12.30;99.90;;;;;;5094086;28;20010;-74
2022/10/21 06:18:29;;;;;;;;;;;12.30;99.90;;;;;;5092536;28;19990;-74
2022/10/21 06:20:54;;;;;;;;;;;12.20;99.90;;;;;;5094351;28;20310;-75
2022/10/21 06:23:20;;;;;;;;;;;12.30;99.90;;;;;;5094277;28;19920;-74
2022/10/21 06:25:56;;;;;;;;;;;12.20;99.90;;;;;;5097681;28;19919;-73
2022/10/21 06:28:21;;;;;;;;;;;12.20;99.90;;;;;;5097505;28;19928;-74
2022/10/21 06:30:47;;;;;;;;;;;12.10;99.90;;;;;;5098944;28;19923;-74
2022/10/21 06:33:12;;;;;;;;;;;12.20;99.90;;;;;;5115527;28;20386;-74
2022/10/21 06:35:38;;;;;;;;;;;12.30;99.90;;;;;;5115898;28;19919;-74
2022/10/21 06:38:03;;;;;;;;;;;12.30;99.90;;;;;;5097690;28;20085;-75
2022/10/21 06:40:29;;;;;;;;;;;12.30;99.90;;;;;;5115401;28;19927;-74
2022/10/21 06:42:54;;;;;;;;;;;12.40;99.90;;;;;;5116290;28;19939;-73
2022/10/21 06:45:23;;;;;;;;;;;12.50;99.90;;;;;;5097821;28;20343;-74
2022/10/21 06:47:50;;;;;;;;;;;12.60;99.90;;;;;;5115025;28;20052;-74
2022/10/21 06:50:17;;;;;;;;;;;12.70;99.90;;;;;;5117587;28;20383;-74
2022/10/21 06:52:42;;;;;;;;;;;12.70;99.90;;;;;;5100771;28;19980;-74
2022/10/21 06:55:08;;;;;;;;;;;12.80;99.90;;;;;;5097913;28;19919;-75
2022/10/21 06:57:33;;;;;;;;;;;12.80;99.90;;;;;;5096945;28;19926;-75
2022/10/21 06:59:59;;;;;;;;;;;12.80;99.90;;;;;;5097368;28;20018;-75
2022/10/21 07:02:24;;;;;;;;;;;12.80;99.90;;;;;;5116129;27;19962;-75
2022/10/21 07:04:51;;;;;;;;;;;12.90;99.90;;;;;;5111479;27;19920;-74
2022/10/21 07:07:20;;;;;;;;;;;12.90;99.90;;;;;;5114586;28;19927;-73
2022/10/21 07:09:45;;;;;;;;;;;12.90;99.90;;;;;;5119481;27;20412;-74
2022/10/21 07:12:11;;;;;;;;;;;12.90;99.90;;;;;;5097584;28;19928;-75
2022/10/21 07:14:36;;;;;;;;;;;12.90;99.90;;;;;;5096199;28;20375;-75
2022/10/21 07:17:02;;;;;;;;;;;13.00;99.90;;;;;;5118668;27;20010;-75
2022/10/21 07:19:28;;;;;;;;;;;13.00;99.90;;;;;;5115066;28;19927;-75
2022/10/21 07:21:56;;;;;;;;;;;13.10;99.90;;;;;;5096423;28;19920;-75
2022/10/21 07:24:22;;;;;;;;;;;13.10;99.90;;;;;;5096923;28;19942;-74
2022/10/21 07:26:47;;;;;;;;;;;13.20;99.90;;;;;;5115190;27;20394;-74
2022/10/21 07:29:13;;;;;;;;;;;13.30;99.90;;;;;;5114603;27;19919;-75
2022/10/21 07:31:39;;;;;;;;;;;13.30;99.90;;;;;;5114413;28;19923;-75
2022/10/21 07:34:05;;;;;;;;;;;13.40;99.90;;;;;;5115517;28;19923;-75
2022/10/21 07:36:32;;;;;;;;;;;13.50;99.90;;;;;;5092264;28;19946;-75
2022/10/21 07:38:59;;;;;;;;;;;13.60;99.90;;;;;;5095362;28;20379;-75
2022/10/21 07:41:27;;;;;;;;;;;13.80;99.90;;;;;;5093358;28;20340;-74
2022/10/21 07:43:53;;;;;;;;;;;14.00;99.90;;;;;;5092650;28;19967;-75
2022/10/21 07:46:19;;;;;;;;;;;14.10;99.90;;;;;;5093675;28;20010;-75
2022/10/21 07:48:45;;;;;;;;;;;14.30;99.90;;;;;;5094422;28;19920;-74
2022/10/21 07:51:12;;;;;;;;;;;14.40;99.90;;;;;;5093966;28;19924;-74
2022/10/21 07:53:38;;;;;;;;;;;14.60;99.90;;;;;;5094508;28;19930;-74
2022/10/21 07:56:10;;;;;;;;;;;15.30;99.90;;;;;;5092940;28;20325;-74
2022/10/21 07:58:36;;;;;;;;;;;14.70;99.90;;;;;;5093070;28;19928;-74
2022/10/21 08:01:02;;;;;;;;;;;14.70;99.90;;;;;;5093963;28;19927;-74
2022/10/21 08:03:31;;;;;;;;;;;14.70;99.90;;;;;;5091947;28;19920;-74
2022/10/21 08:05:56;;;;;;;;;;;14.80;99.90;;;;;;5093986;28;19927;-74
2022/10/21 08:08:23;;;;;;;;;;;15.00;99.90;;;;;;5093661;28;20057;-74
2022/10/21 08:10:52;;;;;;;;;;;15.30;99.90;;;;;;5092112;28;19920;-74
2022/10/21 08:13:17;;;;;;;;;;;15.50;99.90;;;;;;5093530;28;19924;-74
2022/10/21 08:15:44;;;;;;;;;;;15.70;99.90;;;;;;5093319;28;19926;-73
2022/10/21 08:18:09;;;;;;;;;;;15.70;99.90;;;;;;5093176;28;19920;-74
2022/10/21 08:20:42;;;;;;;;;;;15.70;99.90;;;;;;5093027;28;19920;-75
2022/10/21 08:23:09;;;;;;;;;;;15.60;99.90;;;;;;5088267;28;19969;-73
2022/10/21 08:25:34;;;;;;;;;;;15.60;99.90;;;;;;5092907;28;19920;-75
2022/10/21 08:28:00;;;;;;;;;;;15.60;99.90;;;;;;5092438;28;19926;-75
2022/10/21 08:30:30;;;;;;;;;;;15.80;99.90;;;;;;5093160;28;19924;-76
2022/10/21 08:32:59;;;;;;;;;;;15.90;99.90;;;;;;5092937;28;20418;-75
2022/10/21 08:35:25;;;;;;;;;;;16.00;99.90;;;;;;5092073;28;19920;-76
2022/10/21 08:37:50;;;;;;;;;;;16.00;99.90;;;;;;5092412;28;20307;-76
2022/10/21 08:40:19;;;;;;;;;;;16.00;99.90;;;;;;5091527;28;19920;-76
2022/10/21 08:42:45;;;;;;;;;;;15.80;99.90;;;;;;5094023;28;19920;-73
2022/10/21 08:45:15;;;;;;;;;;;15.80;99.90;;;;;;5092321;28;20322;-75
2022/10/21 08:47:50;;;;;;;;;;;15.70;99.90;;;;;;5091032;28;19919;-79
2022/10/21 08:50:18;;;;;;;;;;;15.70;99.90;;;;;;5094768;28;19919;-74
2022/10/21 08:52:43;;;;;;;;;;;15.70;99.90;;;;;;5092368;28;19920;-78
2022/10/21 08:55:17;;;;;;;;;;;15.90;99.90;;;;;;5092685;28;19927;-74
2022/10/21 08:57:43;;;;;;;;;;;16.10;99.90;;;;;;5093201;28;19927;-74
2022/10/21 09:00:15;;;;;;;;;;;16.10;99.90;;;;;;5097163;28;19920;-74
2022/10/21 09:02:40;;;;;;;;;;;16.30;99.90;;;;;;5091849;28;19919;-74
2022/10/21 09:05:09;;;;;;;;;;;16.50;99.90;;;;;;5091876;28;20287;-74
2022/10/21 09:07:53;;;;;;;;;;;16.50;99.90;;;;;;5090226;28;20375;-74
2022/10/21 09:10:19;;;;;;;;;;;16.50;99.90;;;;;;5090869;28;19923;-73
2022/10/21 09:12:59;;;;;;;;;;;16.40;99.90;;;;;;5093193;28;19943;-74
2022/10/21 09:15:38;;;;;;;;;;;16.40;99.90;;;;;;5091612;28;19927;-74
2022/10/21 09:18:33;;;;;;;;;;;16.40;99.90;;;;;;5088143;28;19920;-72
2022/10/21 09:21:06;;;;;;;;;;;16.30;99.90;;;;;;5070784;28;19928;-73
2022/10/21 09:23:50;;;;;;;;;;;16.20;99.90;;;;;;5087948;28;19920;-73
2022/10/21 09:26:34;;;;;;;;;;;16.20;99.90;;;;;;5093296;28;19920;-75
2022/10/21 09:29:05;;;;;;;;;;;16.10;99.90;;;;;;5093254;28;19919;-74
2022/10/21 09:31:31;;;;;;;;;;;16.10;99.90;;;;;;5093203;28;20473;-71
2022/10/21 09:33:58;;;;;;;;;;;16.00;99.90;;;;;;5091528;28;19924;-74
2022/10/21 09:36:35;;;;;;;;;;;15.90;99.90;;;;;;5106175;27;19927;-72
2022/10/21 09:39:15;;;;;;;;;;;15.80;99.90;;;;;;5109848;27;19920;-76
2022/10/21 09:41:43;;;;;;;;;;;15.70;99.90;;;;;;5095175;27;19928;-76
2022/10/21 09:44:21;;;;;;;;;;;15.60;99.90;;;;;;5093972;28;19923;-72
2022/10/21 09:46:48;;;;;;;;;;;15.50;99.90;;;;;;5094766;28;19966;-74
2022/10/21 09:49:30;;;;;;;;;;;15.50;99.90;;;;;;5110337;28;21711;-75
2022/10/21 09:51:58;;;;;;;;;;;15.50;99.90;;;;;;5109511;28;19984;-72
2022/10/21 09:54:28;;;;;;;;;;;15.40;99.90;;;;;;5119315;27;20009;-71
2022/10/21 09:57:09;;;;;;;;;;;15.50;99.90;;;;;;5091030;28;20291;-71
2022/10/21 09:59:36;;;;;;;;;;;15.40;99.90;;;;;;5090182;28;19964;-73
2022/10/21 10:02:13;;;;;;;;;;;15.50;99.90;;;;;;5113835;28;19928;-72
2022/10/21 10:04:39;;;;;;;;;;;15.50;99.90;;;;;;5094896;28;19937;-76
2022/10/21 10:07:26;;;;;;;;;;;15.40;99.90;;;;;;5114285;28;20374;-73
2022/10/21 10:09:52;;;;;;;;;;;15.30;99.90;;;;;;5090498;28;19926;-73
2022/10/21 10:12:22;;;;;;;;;;;15.40;99.90;;;;;;5111228;28;19924;-72
2022/10/21 10:14:48;;;;;;;;;;;15.40;99.90;;;;;;5097676;28;19931;-70
2022/10/21 10:17:23;;;;;;;;;;;15.40;99.90;;;;;;5111616;28;19919;-71
2022/10/21 10:20:07;;;;;;;;;;;15.40;99.90;;;;;;5090410;28;19927;-72
2022/10/21 10:22:32;;;;;;;;;;;15.40;99.90;;;;;;5092918;28;19919;-74
2022/10/21 10:25:13;;;;;;;;;;;15.50;99.90;;;;;;5093674;28;19923;-72
2022/10/21 10:27:52;;;;;;;;;;;15.40;99.90;;;;;;5105030;28;19930;-73
2022/10/21 10:30:18;;;;;;;;;;;15.60;99.90;;;;;;5091143;28;19924;-74
2022/10/21 10:32:44;;;;;;;;;;;15.70;99.90;;;;;;5095985;28;19920;-73
2022/10/21 10:35:30;;;;;;;;;;;15.70;99.90;;;;;;5111204;28;19950;-75
2022/10/21 10:37:57;;;;;;;;;;;15.60;99.90;;;;;;5089889;28;19923;-77
2022/10/21 10:40:25;;;;;;;;;;;15.70;99.90;;;;;;5111456;28;19924;-73
2022/10/21 10:43:00;;;;;;;;;;;15.70;99.90;;;;;;5096730;28;19915;-73
2022/10/21 10:45:26;;;;;;;;;;;15.70;99.90;;;;;;5094743;28;19968;-74
2022/10/21 10:47:56;;;;;;;;;;;15.70;99.90;;;;;;5112495;28;20359;-72
2022/10/21 10:50:36;;;;;;;;;;;15.70;99.90;;;;;;5092251;28;19969;-72
2022/10/21 10:53:20;;;;;;;;;;;15.70;99.90;;;;;;5111389;28;19923;-72
2022/10/21 10:55:49;;;;;;;;;;;15.70;99.90;;;;;;5098124;28;20059;-72
2022/10/21 10:58:16;;;;;;;;;;;15.80;99.90;;;;;;5091021;28;20359;-71
2022/10/21 11:00:43;;;;;;;;;;;15.70;99.90;;;;;;5110390;28;19919;-72
2022/10/21 11:03:12;;;;;;;;;;;15.70;99.90;;;;;;5119736;27;19927;-71
2022/10/21 11:05:44;;;;;;;;;;;15.80;99.90;;;;;;5111811;28;19924;-72
2022/10/21 11:08:15;;;;;;;;;;;15.70;99.90;;;;;;5107017;28;19931;-72
2022/10/21 11:10:52;;;;;;;;;;;15.70;99.90;;;;;;5108006;28;20262;-72
2022/10/21 11:13:21;;;;;;;;;;;15.70;99.90;;;;;;5112766;27;19999;-73
2022/10/21 11:15:55;;;;;;;;;;;15.70;99.90;;;;;;5117234;27;19924;-72
2022/10/21 11:18:26;;;;;;;;;;;15.70;99.90;;;;;;5096670;28;20302;-71
2022/10/21 11:21:05;;;;;;;;;;;15.70;99.90;;;;;;5109262;28;20437;-73
2022/10/21 11:23:41;;;;;;;;;;;15.70;99.90;;;;;;5096207;28;19935;-85
2022/10/21 11:26:15;;;;;;;;;;;15.80;99.90;;;;;;5118011;27;19919;-74
2022/10/21 11:28:47;;;;;;;;;;;15.90;99.90;;;;;;5113979;28;19927;-75
2022/10/21 11:31:12;;;;;;;;;;;15.90;99.90;;;;;;5096387;28;19915;-74
2022/10/21 11:33:38;;;;;;;;;;;16.00;99.90;;;;;;5115176;27;19984;-76
2022/10/21 11:36:06;;;;;;;;;;;16.00;99.90;;;;;;5114026;28;19920;-75
2022/10/21 11:38:43;;;;;;;;;;;16.00;99.90;;;;;;5114341;28;19926;-74
2022/10/21 11:41:21;;;;;;;;;;;16.00;99.90;;;;;;5113989;27;20324;-72
2022/10/21 11:43:49;;;;;;;;;;;16.00;99.90;;;;;;5095807;28;19920;-72
2022/10/21 11:46:27;;;;;;;;;;;16.00;99.90;;;;;;5114442;28;19920;-72
2022/10/21 11:49:07;;;;;;;;;;;16.20;99.90;;;;;;5095731;28;19926;-71
2022/10/21 11:51:46;;;;;;;;;;;16.20;99.90;;;;;;5091327;28;20370;-73
2022/10/21 11:54:12;;;;;;;;;;;16.10;99.90;;;;;;5109406;28;19934;-74
2022/10/21 11:57:06;;;;;;;;;;;16.30;99.90;;;;;;5115222;27;19920;-75
2022/10/21 11:59:44;;;;;;;;;;;16.30;99.90;;;;;;5107878;27;19919;-75
2022/10/21 12:02:13;;;;;;;;;;;16.30;99.90;;;;;;5095592;27;19919;-75
2022/10/21 12:04:44;;;;;;;;;;;16.30;99.90;;;;;;5097751;28;19962;-76
2022/10/21 12:07:13;;;;;;;;;;;16.30;99.90;;;;;;5100391;28;19992;-75
2022/10/21 12:09:42;;;;;;;;;;;16.30;99.90;;;;;;5096649;28;19915;-75
2022/10/21 12:12:16;;;;;;;;;;;16.40;99.90;;;;;;5098608;27;20049;-74
2022/10/21 12:14:53;;;;;;;;;;;16.40;99.90;;;;;;5126824;27;20390;-72
2022/10/21 12:17:20;;;;;;;;;;;16.50;99.90;;;;;;5094992;28;20010;-73
2022/10/21 12:19:50;;;;;;;;;;;16.60;99.90;;;;;;5115468;28;19919;-75
2022/10/21 12:22:17;;;;;;;;;;;16.70;99.90;;;;;;5113972;28;19964;-76
2022/10/21 12:24:49;;;;;;;;;;;16.70;99.90;;;;;;5094303;28;19920;-75
2022/10/21 12:27:23;;;;;;;;;;;16.90;99.90;;;;;;5115592;27;20470;-74
2022/10/21 12:30:09;;;;;;;;;;;17.00;99.90;;;;;;5114413;27;19986;-74
2022/10/21 12:32:37;;;;;;;;;;;17.20;99.90;;;;;;5109915;28;19920;-74
2022/10/21 12:35:03;;;;;;;;;;;17.40;99.90;;;;;;5097906;28;19979;-75
2022/10/21 12:37:45;;;;;;;;;;;18.10;99.90;;;;;;5112698;28;20390;-76
2022/10/21 12:40:16;;;;;;;;;;;18.90;99.90;;;;;;5096356;28;20410;-75
2022/10/21 12:42:44;;;;;;;;;;;19.60;99.90;;;;;;5114210;27;19915;-75
2022/10/21 12:45:24;;;;;;;;;;;20.30;99.90;;;;;;5095115;28;20399;-75
2022/10/21 12:47:51;;;;;;;;;;;20.80;99.90;;;;;;5114865;27;19923;-75
2022/10/21 12:50:21;;;;;;;;;;;21.10;99.90;;;;;;5095730;28;19941;-75
2022/10/21 12:53:02;;;;;;;;;;;21.20;99.90;;;;;;5095248;28;20424;-76
2022/10/21 12:55:27;;;;;;;;;;;21.00;99.90;;;;;;5095001;28;19920;-75
2022/10/21 12:57:58;;;;;;;;;;;20.60;99.90;;;;;;5113805;27;19920;-75
2022/10/21 13:00:27;;;;;;;;;;;20.30;99.90;;;;;;5109118;27;19963;-75
2022/10/21 13:02:57;;;;;;;;;;;19.90;99.90;;;;;;5091156;28;19919;-76
2022/10/21 13:05:35;;;;;;;;;;;19.90;99.90;;;;;;5094782;27;20329;-76
2022/10/21 13:08:19;;;;;;;;;;;20.10;99.90;;;;;;5117328;27;19971;-74
2022/10/21 13:11:06;;;;;;;;;;;20.00;99.90;;;;;;5117031;27;19973;-75
2022/10/21 13:13:35;;;;;;;;;;;20.00;99.90;;;;;;5110441;28;19919;-75
2022/10/21 13:16:19;;;;;;;;;;;20.00;99.90;;;;;;5115304;27;20462;-75
2022/10/21 13:18:54;;;;;;;;;;;20.00;99.90;;;;;;5113630;27;20008;-75
2022/10/21 13:21:35;;;;;;;;;;;19.80;99.90;;;;;;5112792;27;19972;-74
2022/10/21 13:24:05;;;;;;;;;;;19.70;99.90;;;;;;5110847;28;19920;-75
2022/10/21 13:26:31;;;;;;;;;;;19.30;99.90;;;;;;5112872;27;19927;-75
2022/10/21 13:28:59;;;;;;;;;;;19.20;99.90;;;;;;5114063;28;19924;-75
2022/10/21 13:31:25;;;;;;;;;;;18.90;99.90;;;;;;5119757;28;20002;-75
2022/10/21 13:33:52;;;;;;;;;;;18.70;99.90;;;;;;5094183;28;19959;-75
2022/10/21 13:36:27;;;;;;;;;;;18.60;99.90;;;;;;5113260;27;19927;-75
2022/10/21 13:38:54;;;;;;;;;;;18.40;99.90;;;;;;5109762;28;19920;-76
2022/10/21 13:41:27;;;;;;;;;;;18.30;99.90;;;;;;5114499;27;19981;-74
2022/10/21 13:44:00;;;;;;;;;;;18.20;99.90;;;;;;5113096;27;19969;-75
2022/10/21 13:46:25;;;;;;;;;;;18.20;99.90;;;;;;5112813;28;19920;-75
2022/10/21 13:48:51;;;;;;;;;;;18.20;99.90;;;;;;5111944;28;19920;-75
2022/10/21 13:51:28;;;;;;;;;;;18.20;99.90;;;;;;5112444;28;19927;-74
2022/10/21 13:53:54;;;;;;;;;;;18.10;99.90;;;;;;5094672;28;19967;-75
2022/10/21 13:56:22;;;;;;;;;;;18.00;99.90;;;;;;5094021;28;19923;-75
2022/10/21 13:58:48;;;;;;;;;;;17.90;99.90;;;;;;5115570;28;19919;-74
2022/10/21 14:01:19;;;;;;;;;;;17.90;99.90;;;;;;5112428;28;19923;-74
2022/10/21 14:03:45;;;;;;;;;;;17.90;99.90;;;;;;5107843;28;19919;-75
2022/10/21 14:06:22;;;;;;;;;;;17.90;99.90;;;;;;5100178;28;19927;-74
2022/10/21 14:08:47;;;;;;;;;;;17.90;99.90;;;;;;5110112;28;19915;-74
2022/10/21 14:11:15;;;;;;;;;;;17.90;99.90;;;;;;5114040;28;20398;-74
2022/10/21 14:13:40;;;;;;;;;;;17.70;99.90;;;;;;5109051;28;19916;-73
2022/10/21 14:16:07;;;;;;;;;;;17.70;99.90;;;;;;5119485;28;19920;-75
2022/10/21 14:18:37;;;;;;;;;;;17.60;99.90;;;;;;5110237;28;20002;-75
2022/10/21 14:21:03;;;;;;;;;;;17.70;99.90;;;;;;5112393;28;19927;-74
2022/10/21 14:23:29;;;;;;;;;;;17.50;99.90;;;;;;5110465;28;19920;-75
2022/10/21 14:26:01;;;;;;;;;;;17.40;99.90;;;;;;5097778;28;19919;-74
2022/10/21 14:28:27;;;;;;;;;;;17.30;99.90;;;;;;5111852;28;19981;-75
2022/10/21 14:30:52;;;;;;;;;;;17.40;99.90;;;;;;5111414;28;20306;-74